createdAt,value
2023-05-24T00:01:12.064Z,14.76
2023-05-24T00:03:40.554Z,14.79
2023-05-24T00:06:09.069Z,14.78
2023-05-24T00:08:37.147Z,14.71
2023-05-24T00:11:07.414Z,14.80
2023-05-24T00:13:35.609Z,14.72
2023-05-24T00:16:03.776Z,14.66
2023-05-24T00:18:32.182Z,14.65
2023-05-24T00:21:00.555Z,14.63
2023-05-24T00:23:28.738Z,14.60
2023-05-24T00:25:56.893Z,14.57
2023-05-24T00:28:26.695Z,14.51
2023-05-24T00:30:54.942Z,14.51
2023-05-24T00:33:23.498Z,14.56
2023-05-24T00:35:56.525Z,14.46
2023-05-24T00:38:24.877Z,14.34
2023-05-24T00:40:53.018Z,14.22
2023-05-24T00:43:21.144Z,14.19
2023-05-24T00:46:01.885Z,14.16
2023-05-24T00:48:30.178Z,14.36
2023-05-24T00:50:59.065Z,14.36
2023-05-24T00:53:27.316Z,14.37
2023-05-24T00:55:56.662Z,14.39
2023-05-24T00:58:27.389Z,14.39
2023-05-24T01:01:00.359Z,14.35
2023-05-24T01:03:29.658Z,14.32
2023-05-24T01:05:59.073Z,14.28
2023-05-24T01:08:44.510Z,14.25
2023-05-24T01:11:23.387Z,14.22
2023-05-24T01:14:00.145Z,14.13
2023-05-24T01:16:39.406Z,14.10
2023-05-24T01:19:24.320Z,14.05
2023-05-24T01:22:09.328Z,14.08
2023-05-24T01:24:54.093Z,14.02
2023-05-24T01:27:24.942Z,14.00
2023-05-24T01:29:54.501Z,13.96
2023-05-24T01:32:22.973Z,13.90
2023-05-24T01:34:51.246Z,13.79
2023-05-24T01:37:19.439Z,13.80
2023-05-24T01:39:48.931Z,13.86
2023-05-24T01:42:27.710Z,13.87
2023-05-24T01:45:07.205Z,13.86
2023-05-24T01:47:48.420Z,13.83
2023-05-24T01:50:21.677Z,13.75
2023-05-24T01:52:53.161Z,13.73
2023-05-24T01:55:24.283Z,13.69
2023-05-24T01:58:00.133Z,13.70
2023-05-24T02:00:28.914Z,13.70
2023-05-24T02:02:58.750Z,13.60
2023-05-24T02:05:27.309Z,13.60
2023-05-24T02:07:55.456Z,13.54
2023-05-24T02:10:23.780Z,13.48
2023-05-24T02:12:53.378Z,13.43
2023-05-24T02:15:21.935Z,13.40
2023-05-24T02:17:50.496Z,13.43
2023-05-24T02:20:19.155Z,13.34
2023-05-24T02:22:47.899Z,13.29
2023-05-24T02:25:16.262Z,13.20
2023-05-24T02:27:47.283Z,13.13
2023-05-24T02:30:17.047Z,13.13
2023-05-24T02:32:45.262Z,13.13
2023-05-24T02:35:13.645Z,13.18
2023-05-24T02:37:42.298Z,13.28
2023-05-24T02:40:11.447Z,13.33
2023-05-24T02:42:39.817Z,13.21
2023-05-24T02:45:09.259Z,13.10
2023-05-24T02:47:38.879Z,13.02
2023-05-24T02:50:08.436Z,12.96
2023-05-24T02:52:36.623Z,12.92
2023-05-24T02:55:06.385Z,12.90
2023-05-24T02:57:35.199Z,12.91
2023-05-24T03:00:04.408Z,12.90
2023-05-24T03:02:34.262Z,12.97
2023-05-24T03:05:04.011Z,12.99
2023-05-24T03:07:32.191Z,13.04
2023-05-24T03:10:00.350Z,13.12
2023-05-24T03:12:28.653Z,13.14
2023-05-24T03:14:56.701Z,13.18
2023-05-24T03:17:25.051Z,13.29
2023-05-24T03:19:53.590Z,13.31
2023-05-24T03:22:23.585Z,13.34
2023-05-24T03:24:55.218Z,13.56
2023-05-24T03:27:23.489Z,13.63
2023-05-24T03:29:51.716Z,13.62
2023-05-24T03:32:19.999Z,13.67
2023-05-24T03:34:48.393Z,13.75
2023-05-24T03:37:16.615Z,13.92
2023-05-24T03:39:46.354Z,14.16
2023-05-24T03:42:14.528Z,14.32
2023-05-24T03:44:44.002Z,14.38
2023-05-24T03:47:13.834Z,14.48
2023-05-24T03:49:42.228Z,14.60
2023-05-24T03:52:10.492Z,14.72
2023-05-24T03:54:38.859Z,14.89
2023-05-24T03:57:09.216Z,15.14
2023-05-24T04:02:23.289Z,15.15
2023-05-24T04:04:51.599Z,15.29
2023-05-24T04:07:20.567Z,15.61
2023-05-24T04:09:48.789Z,15.91
2023-05-24T04:12:19.127Z,16.07
2023-05-24T04:14:47.279Z,16.22
2023-05-24T04:17:15.642Z,16.21
2023-05-24T04:19:43.818Z,16.35
2023-05-24T04:22:12.038Z,16.58
2023-05-24T04:24:40.706Z,16.77
2023-05-24T04:27:09.934Z,16.93
2023-05-24T04:29:41.324Z,17.17
2023-05-24T04:32:10.200Z,17.34
2023-05-24T04:34:42.972Z,17.41
2023-05-24T04:37:11.254Z,17.64
2023-05-24T04:39:39.370Z,17.78
2023-05-24T04:42:08.497Z,17.89
2023-05-24T04:44:36.715Z,18.00
2023-05-24T04:47:07.113Z,17.94
2023-05-24T04:49:35.764Z,18.11
2023-05-24T04:52:04.610Z,17.98
2023-05-24T04:54:32.773Z,18.01
2023-05-24T04:57:01.419Z,18.10
2023-05-24T04:59:29.635Z,18.26
2023-05-24T05:01:58.160Z,18.46
2023-05-24T05:04:28.360Z,18.63
2023-05-24T05:06:56.988Z,18.63
2023-05-24T05:09:25.233Z,18.82
2023-05-24T05:11:53.858Z,19.00
2023-05-24T05:14:21.901Z,19.19
2023-05-24T05:16:50.125Z,19.16
2023-05-24T05:19:18.321Z,18.85
2023-05-24T05:21:48.418Z,18.90
2023-05-24T05:24:17.303Z,19.25
2023-05-24T05:26:45.568Z,19.63
2023-05-24T05:29:13.760Z,19.98
2023-05-24T05:31:42.084Z,20.09
2023-05-24T05:34:10.975Z,20.20
2023-05-24T05:36:40.917Z,20.15
2023-05-24T05:39:10.788Z,19.82
2023-05-24T05:41:40.589Z,19.57
2023-05-24T05:44:08.689Z,19.97
2023-05-24T05:46:36.896Z,20.13
2023-05-24T05:49:05.330Z,20.41
2023-05-24T05:51:33.518Z,20.62
2023-05-24T05:54:01.654Z,20.86
2023-05-24T05:56:31.254Z,21.04
2023-05-24T05:58:59.432Z,21.17
2023-05-24T06:01:27.751Z,21.37
2023-05-24T06:03:56.180Z,21.37
2023-05-24T06:06:24.352Z,21.37
2023-05-24T06:08:52.571Z,21.38
2023-05-24T06:11:22.034Z,21.42
2023-05-24T06:13:51.652Z,21.31
2023-05-24T06:16:20.118Z,21.31
2023-05-24T06:19:01.212Z,21.41
2023-05-24T06:21:33.289Z,21.40
2023-05-24T06:24:02.680Z,21.49
2023-05-24T06:26:31.771Z,21.45
2023-05-24T06:29:01.751Z,21.36
2023-05-24T06:31:30.108Z,21.22
2023-05-24T06:36:29.809Z,20.87
2023-05-24T06:38:58.322Z,20.95
2023-05-24T06:41:27.241Z,20.88
2023-05-24T06:43:55.943Z,20.79
2023-05-24T06:46:25.785Z,20.69
2023-05-24T06:48:54.242Z,20.66
2023-05-24T06:51:28.990Z,20.75
2023-05-24T06:53:57.906Z,20.74
2023-05-24T06:56:27.025Z,20.79
2023-05-24T06:58:55.294Z,20.69
2023-05-24T07:01:24.305Z,20.72
2023-05-24T07:03:53.830Z,20.76
2023-05-24T07:06:22.078Z,20.78
2023-05-24T07:08:50.179Z,21.00
2023-05-24T07:11:18.497Z,21.15
2023-05-24T07:13:46.916Z,21.31
2023-05-24T07:16:14.995Z,21.51
2023-05-24T07:18:43.122Z,21.58
2023-05-24T07:21:12.674Z,21.76
2023-05-24T07:23:41.332Z,21.88
2023-05-24T07:26:10.254Z,21.90
2023-05-24T07:28:40.508Z,21.67
2023-05-24T07:31:10.428Z,21.34
2023-05-24T07:33:38.862Z,21.47
2023-05-24T07:36:07.749Z,21.57
2023-05-24T07:38:37.417Z,21.75
2023-05-24T07:41:06.426Z,21.98
2023-05-24T07:43:34.772Z,22.08
2023-05-24T07:46:02.995Z,22.26
2023-05-24T07:48:31.086Z,22.17
2023-05-24T07:50:59.516Z,22.22
2023-05-24T07:53:27.690Z,22.24
2023-05-24T07:55:57.152Z,22.35
2023-05-24T07:58:25.278Z,22.27
2023-05-24T08:00:54.095Z,22.45
2023-05-24T08:03:22.342Z,22.71
2023-05-24T08:05:50.491Z,22.63
2023-05-24T08:08:18.537Z,22.44
2023-05-24T08:10:46.942Z,22.59
2023-05-24T08:13:16.950Z,22.93
2023-05-24T08:15:45.297Z,22.99
2023-05-24T08:18:13.541Z,23.12
2023-05-24T08:20:41.931Z,23.17
2023-05-24T08:23:10.607Z,23.30
2023-05-24T08:25:39.263Z,23.36
2023-05-24T08:28:07.720Z,23.48
2023-05-24T08:30:37.186Z,23.57
2023-05-24T08:33:05.351Z,23.54
2023-05-24T08:35:33.460Z,23.64
2023-05-24T08:38:01.424Z,23.79
2023-05-24T08:40:29.502Z,23.81
2023-05-24T08:43:01.111Z,23.93
2023-05-24T08:45:31.976Z,23.95
2023-05-24T08:48:02.999Z,24.19
2023-05-24T08:50:32.848Z,24.35
2023-05-24T08:53:03.084Z,24.45
2023-05-24T08:55:33.239Z,24.57
2023-05-24T08:58:02.229Z,24.64
2023-05-24T09:00:30.311Z,24.89
2023-05-24T09:03:00.436Z,24.99
2023-05-24T09:05:31.121Z,25.28
2023-05-24T09:08:02.140Z,25.44
2023-05-24T09:10:49.213Z,25.39
2023-05-24T09:13:20.527Z,25.51
2023-05-24T09:15:48.695Z,25.58
2023-05-24T09:18:16.921Z,25.57
2023-05-24T09:20:46.842Z,25.60
2023-05-24T09:23:16.925Z,25.45
2023-05-24T09:25:45.467Z,25.56
2023-05-24T09:28:16.092Z,25.47
2023-05-24T09:30:46.035Z,25.53
2023-05-24T09:33:14.588Z,25.55
2023-05-24T09:35:43.858Z,25.57
2023-05-24T09:38:20.076Z,25.57
2023-05-24T09:40:48.119Z,25.49
2023-05-24T09:43:16.191Z,25.48
2023-05-24T09:45:46.789Z,25.51
2023-05-24T09:48:17.332Z,25.56
2023-05-24T09:50:47.601Z,25.62
2023-05-24T09:53:20.010Z,25.57
2023-05-24T09:55:48.951Z,25.69
2023-05-24T09:58:18.660Z,25.78
2023-05-24T10:00:47.301Z,26.08
2023-05-24T10:03:16.643Z,26.07
2023-05-24T10:05:46.719Z,26.22
2023-05-24T10:08:15.574Z,26.47
2023-05-24T10:10:46.866Z,26.48
2023-05-24T10:13:17.817Z,26.53
2023-05-24T10:15:46.093Z,26.74
2023-05-24T10:18:14.612Z,26.73
2023-05-24T10:20:43.237Z,26.79
2023-05-24T10:23:16.235Z,26.96
2023-05-24T10:25:53.977Z,26.95
2023-05-24T10:28:25.464Z,27.07
2023-05-24T10:31:03.700Z,27.21
2023-05-24T10:33:33.761Z,27.30
2023-05-24T10:36:02.113Z,27.31
2023-05-24T10:38:31.473Z,27.36
2023-05-24T10:41:01.853Z,27.40
2023-05-24T10:43:30.784Z,27.41
2023-05-24T10:45:59.031Z,27.55
2023-05-24T10:48:36.345Z,27.72
2023-05-24T10:51:35.624Z,27.48
2023-05-24T10:54:18.487Z,26.97
2023-05-24T10:56:49.514Z,27.07
2023-05-24T10:59:35.079Z,27.19
2023-05-24T11:02:04.448Z,27.44
2023-05-24T11:04:34.584Z,27.36
2023-05-24T11:07:04.707Z,27.52
2023-05-24T11:09:34.005Z,27.46
2023-05-24T11:12:07.697Z,27.54
2023-05-24T11:14:39.583Z,27.64
2023-05-24T11:17:10.729Z,27.86
2023-05-24T11:19:40.427Z,27.69
2023-05-24T11:22:10.119Z,27.89
2023-05-24T11:24:39.040Z,28.04
2023-05-24T11:27:09.160Z,28.10
2023-05-24T11:29:42.680Z,27.85
2023-05-24T11:32:11.547Z,27.57
2023-05-24T11:34:41.007Z,27.36
2023-05-24T11:37:09.526Z,27.07
2023-05-24T11:39:39.330Z,27.10
2023-05-24T11:42:10.114Z,27.21
2023-05-24T11:44:41.504Z,27.38
2023-05-24T11:47:09.922Z,27.45
2023-05-24T11:49:38.245Z,27.64
2023-05-24T11:52:07.692Z,27.72
2023-05-24T11:54:37.479Z,27.59
2023-05-24T11:57:06.878Z,27.77
2023-05-24T11:59:38.198Z,27.79
2023-05-24T12:02:08.879Z,27.45
2023-05-24T12:04:37.433Z,27.79
2023-05-24T12:07:06.030Z,28.19
2023-05-24T12:09:34.633Z,28.44
2023-05-24T12:12:03.216Z,28.49
2023-05-24T12:14:34.651Z,28.24
2023-05-24T12:17:05.072Z,28.39
2023-05-24T12:19:36.719Z,28.52
2023-05-24T12:22:07.418Z,28.77
2023-05-24T12:24:36.804Z,28.90
2023-05-24T12:27:08.191Z,28.86
2023-05-24T12:29:38.954Z,28.72
2023-05-24T12:32:13.986Z,28.75
2023-05-24T12:34:43.956Z,28.85
2023-05-24T12:37:13.803Z,29.01
2023-05-24T12:39:43.818Z,28.79
2023-05-24T12:42:13.575Z,28.71
2023-05-24T12:44:42.680Z,28.89
2023-05-24T12:47:13.160Z,29.10
2023-05-24T12:49:41.903Z,29.05
2023-05-24T12:52:09.994Z,28.83
2023-05-24T12:54:38.620Z,28.66
2023-05-24T12:57:07.309Z,28.59
2023-05-24T12:59:36.042Z,28.62
2023-05-24T13:02:04.522Z,28.73
2023-05-24T13:04:36.248Z,28.82
2023-05-24T13:07:04.762Z,28.85
2023-05-24T13:09:34.438Z,28.67
2023-05-24T13:12:03.135Z,28.45
2023-05-24T13:14:31.478Z,28.36
2023-05-24T13:16:59.747Z,28.23
2023-05-24T13:19:28.019Z,28.08
2023-05-24T13:21:59.742Z,27.52
2023-05-24T13:24:29.047Z,27.11
2023-05-24T13:26:57.972Z,27.21
2023-05-24T13:31:58.496Z,27.69
2023-05-24T13:34:27.194Z,27.95
2023-05-24T13:37:00.196Z,27.48
2023-05-24T13:39:28.879Z,26.38
2023-05-24T13:41:57.592Z,26.03
2023-05-24T13:44:25.771Z,25.45
2023-05-24T13:46:56.885Z,24.81
2023-05-24T13:49:25.278Z,24.16
2023-05-24T13:51:57.218Z,23.55
2023-05-24T13:54:28.414Z,22.91
2023-05-24T13:56:58.101Z,22.19
2023-05-24T13:59:27.282Z,21.74
2023-05-24T14:01:56.336Z,21.71
2023-05-24T14:04:24.950Z,21.56
2023-05-24T14:06:53.515Z,21.63
2023-05-24T14:09:23.916Z,21.85
2023-05-24T14:11:53.720Z,22.02
2023-05-24T14:14:58.459Z,22.19
2023-05-24T14:17:10.220Z,22.40
2023-05-24T14:19:38.664Z,22.57
2023-05-24T14:22:08.077Z,22.73
2023-05-24T14:24:36.503Z,22.85
2023-05-24T14:27:07.558Z,22.96
2023-05-24T14:29:35.869Z,23.03
2023-05-24T14:32:04.297Z,23.15
2023-05-24T14:34:32.500Z,23.29
2023-05-24T14:37:00.658Z,23.41
2023-05-24T14:39:29.035Z,23.50
2023-05-24T14:41:57.279Z,23.63
2023-05-24T14:44:28.490Z,23.80
2023-05-24T14:46:56.912Z,23.90
2023-05-24T14:49:25.524Z,23.85
2023-05-24T14:51:55.280Z,24.07
2023-05-24T14:54:24.492Z,24.18
2023-05-24T14:56:52.997Z,24.09
2023-05-24T14:59:21.180Z,24.17
2023-05-24T15:01:51.006Z,23.77
2023-05-24T15:04:19.170Z,23.64
2023-05-24T15:06:47.428Z,23.92
2023-05-24T15:09:15.703Z,24.11
2023-05-24T15:11:43.833Z,24.25
2023-05-24T15:14:12.292Z,24.23
2023-05-24T15:16:40.553Z,24.42
2023-05-24T15:19:10.587Z,24.46
2023-05-24T15:21:39.845Z,24.52
2023-05-24T15:24:08.670Z,24.75
2023-05-24T15:26:36.943Z,24.60
2023-05-24T15:29:05.415Z,24.59
2023-05-24T15:31:33.729Z,24.86
2023-05-24T15:34:01.972Z,25.04
2023-05-24T15:36:32.598Z,25.24
2023-05-24T15:39:01.977Z,25.26
2023-05-24T15:41:30.321Z,25.23
2023-05-24T15:44:00.978Z,25.27
2023-05-24T15:46:29.167Z,25.31
2023-05-24T15:48:58.010Z,25.30
2023-05-24T15:54:01.000Z,24.82
2023-05-24T15:56:29.406Z,24.59
2023-05-24T15:58:57.983Z,24.30
2023-05-24T16:01:26.462Z,24.06
2023-05-24T16:03:55.188Z,24.05
2023-05-24T16:06:23.700Z,24.13
2023-05-24T16:08:52.006Z,23.98
2023-05-24T16:11:24.766Z,23.63
2023-05-24T16:13:54.433Z,23.37
2023-05-24T16:16:23.818Z,23.35
2023-05-24T16:18:52.172Z,23.27
2023-05-24T16:21:20.253Z,23.36
2023-05-24T16:23:49.454Z,23.55
2023-05-24T16:26:18.038Z,23.64
2023-05-24T16:28:48.088Z,23.45
2023-05-24T16:31:16.492Z,23.58
2023-05-24T16:33:45.655Z,23.64
2023-05-24T16:36:13.813Z,23.60
2023-05-24T16:38:41.957Z,23.60
2023-05-24T16:41:10.500Z,23.44
2023-05-24T16:43:38.757Z,23.41
2023-05-24T16:46:08.365Z,23.35
2023-05-24T16:48:37.791Z,23.30
2023-05-24T16:51:06.020Z,23.16
2023-05-24T16:53:34.162Z,23.04
2023-05-24T16:56:02.241Z,22.80
2023-05-24T16:58:32.288Z,22.65
2023-05-24T17:01:01.057Z,22.59
2023-05-24T17:03:32.983Z,22.50
2023-05-24T17:06:04.061Z,22.37
2023-05-24T17:08:34.563Z,22.29
2023-05-24T17:11:02.675Z,22.21
2023-05-24T17:13:31.079Z,22.10
2023-05-24T17:16:00.312Z,22.02
2023-05-24T17:18:30.420Z,21.95
2023-05-24T17:21:00.895Z,21.88
2023-05-24T17:23:32.021Z,21.78
2023-05-24T17:26:03.160Z,21.73
2023-05-24T17:28:31.854Z,21.66
2023-05-24T17:31:01.872Z,21.60
2023-05-24T17:33:32.781Z,21.56
2023-05-24T17:36:03.320Z,21.44
2023-05-24T17:38:33.354Z,21.17
2023-05-24T17:41:01.757Z,21.01
2023-05-24T17:43:32.637Z,20.83
2023-05-24T17:46:06.584Z,20.69
2023-05-24T17:48:38.893Z,20.60
2023-05-24T17:51:09.241Z,20.53
2023-05-24T17:53:38.627Z,20.47
2023-05-24T17:56:07.553Z,20.35
2023-05-24T17:58:37.384Z,20.30
2023-05-24T18:01:07.168Z,20.25
2023-05-24T18:03:38.047Z,20.24
2023-05-24T18:06:07.371Z,20.14
2023-05-24T18:08:38.554Z,20.12
2023-05-24T18:11:10.550Z,20.09
2023-05-24T18:13:39.848Z,20.05
2023-05-24T18:16:08.514Z,20.04
2023-05-24T18:18:38.891Z,20.03
2023-05-24T18:21:08.241Z,19.93
2023-05-24T18:23:38.214Z,19.91
2023-05-24T18:26:08.928Z,19.86
2023-05-24T18:28:38.234Z,19.78
2023-05-24T18:31:08.621Z,19.78
2023-05-24T18:33:39.193Z,19.71
2023-05-24T18:36:08.186Z,19.62
2023-05-24T18:38:37.480Z,19.51
2023-05-24T18:41:09.442Z,19.44
2023-05-24T18:43:37.772Z,19.42
2023-05-24T18:46:06.991Z,19.41
2023-05-24T18:48:35.293Z,19.36
2023-05-24T18:51:05.205Z,19.39
2023-05-24T18:53:33.577Z,19.27
2023-05-24T18:56:02.202Z,19.26
2023-05-24T18:58:30.395Z,19.15
2023-05-24T19:00:59.018Z,19.14
2023-05-24T19:03:27.450Z,19.15
2023-05-24T19:05:56.038Z,19.01
2023-05-24T19:08:25.825Z,19.13
2023-05-24T19:10:54.047Z,19.12
2023-05-24T19:13:22.509Z,19.02
2023-05-24T19:15:50.825Z,18.82
2023-05-24T19:18:19.182Z,18.71
2023-05-24T19:20:47.390Z,18.71
2023-05-24T19:23:17.019Z,18.58
2023-05-24T19:25:50.914Z,18.41
2023-05-24T19:28:19.347Z,18.34
2023-05-24T19:30:47.968Z,18.28
2023-05-24T19:33:16.672Z,18.23
2023-05-24T19:35:47.701Z,18.22
2023-05-24T19:38:18.340Z,18.23
2023-05-24T19:40:48.136Z,18.24
2023-05-24T19:43:16.557Z,18.25
2023-05-24T19:45:45.241Z,18.26
2023-05-24T19:48:13.834Z,18.30
2023-05-24T19:50:42.584Z,18.42
2023-05-24T19:53:10.875Z,18.40
2023-05-24T19:55:39.560Z,18.39
2023-05-24T19:58:09.680Z,18.28
2023-05-24T20:00:39.940Z,18.29
2023-05-24T20:03:08.472Z,18.30
2023-05-24T20:05:36.680Z,18.31
2023-05-24T20:08:05.171Z,18.28
2023-05-24T20:10:36.732Z,18.23
2023-05-24T20:13:09.813Z,18.19
2023-05-24T20:15:38.481Z,18.19
2023-05-24T20:18:07.350Z,18.14
2023-05-24T20:20:35.986Z,18.04
2023-05-24T20:23:05.441Z,17.99
2023-05-24T20:25:33.774Z,17.96
2023-05-24T20:28:12.812Z,17.90
2023-05-24T20:30:47.947Z,17.81
2023-05-24T20:33:16.278Z,17.86
2023-05-24T20:35:44.720Z,17.90
2023-05-24T20:38:13.482Z,17.81
2023-05-24T20:40:42.063Z,17.76
2023-05-24T20:43:10.471Z,17.70
2023-05-24T20:45:38.898Z,17.67
2023-05-24T20:48:11.494Z,17.63
2023-05-24T20:50:40.050Z,17.59
2023-05-24T20:53:08.340Z,17.54
2023-05-24T20:55:36.788Z,17.51
2023-05-24T20:58:05.008Z,17.51
2023-05-24T21:00:33.844Z,17.52
2023-05-24T21:03:02.347Z,17.52
2023-05-24T21:05:36.610Z,17.54
2023-05-24T21:08:05.234Z,17.57
2023-05-24T21:10:35.533Z,17.54
2023-05-24T21:13:04.803Z,17.47
2023-05-24T21:15:36.779Z,17.44
2023-05-24T21:18:09.457Z,17.50
2023-05-24T21:20:39.663Z,17.51
2023-05-24T21:23:08.519Z,17.44
2023-05-24T21:25:37.830Z,17.35
2023-05-24T21:28:06.325Z,17.26
2023-05-24T21:30:34.832Z,17.19
2023-05-24T21:33:03.531Z,17.20
2023-05-24T21:35:32.703Z,17.18
2023-05-24T21:38:02.489Z,17.17
2023-05-24T21:40:30.894Z,17.09
2023-05-24T21:43:05.003Z,17.02
2023-05-24T21:45:33.335Z,17.00
2023-05-24T21:48:01.728Z,17.05
2023-05-24T21:50:30.213Z,16.96
2023-05-24T21:52:58.400Z,16.92
2023-05-24T21:55:29.226Z,16.84
2023-05-24T21:57:58.128Z,16.77
2023-05-24T22:00:28.110Z,16.80
2023-05-24T22:02:56.642Z,16.82
2023-05-24T22:05:27.626Z,16.83
2023-05-24T22:07:56.471Z,16.81
2023-05-24T22:10:24.859Z,16.73
2023-05-24T22:12:55.133Z,16.63
2023-05-24T22:15:23.387Z,16.62
2023-05-24T22:17:51.758Z,16.56
2023-05-24T22:20:20.360Z,16.49
2023-05-24T22:22:53.480Z,16.42
2023-05-24T22:25:22.308Z,16.45
2023-05-24T22:27:51.119Z,16.44
2023-05-24T22:30:21.065Z,16.43
2023-05-24T22:32:49.461Z,16.49
2023-05-24T22:35:18.306Z,16.64
2023-05-24T22:37:46.611Z,16.66
2023-05-24T22:40:15.350Z,16.62
2023-05-24T22:42:44.030Z,16.52
2023-05-24T22:45:14.036Z,16.48
2023-05-24T22:47:43.804Z,16.42
2023-05-24T22:50:12.362Z,16.36
2023-05-24T22:52:42.772Z,16.35
2023-05-24T22:55:11.575Z,16.31
2023-05-24T22:57:39.976Z,16.22
2023-05-24T23:00:09.979Z,16.22
2023-05-24T23:02:38.494Z,16.23
2023-05-24T23:05:09.725Z,16.24
2023-05-24T23:07:39.983Z,16.25
2023-05-24T23:10:09.478Z,16.17
2023-05-24T23:12:37.680Z,16.14
2023-05-24T23:15:06.772Z,16.08
2023-05-24T23:17:35.232Z,15.98
2023-05-24T23:20:05.194Z,15.90
2023-05-24T23:22:37.707Z,15.84
2023-05-24T23:25:06.834Z,15.81
2023-05-24T23:27:37.578Z,15.77
2023-05-24T23:30:07.628Z,15.75
2023-05-24T23:32:36.036Z,15.76
2023-05-24T23:35:04.461Z,15.73
2023-05-24T23:37:34.079Z,15.78
2023-05-24T23:40:06.403Z,15.82
2023-05-24T23:42:34.752Z,15.84
2023-05-24T23:45:03.466Z,15.82
2023-05-24T23:47:31.927Z,15.81
2023-05-24T23:50:00.178Z,15.70
2023-05-24T23:52:28.433Z,15.62
2023-05-24T23:54:58.437Z,15.62
2023-05-24T23:57:27.274Z,15.68
2023-05-24T23:59:55.592Z,15.64
